Time;durP1;ratioP1;P1;durP2;ratioP2;P2;SDS_P1;SDS_P2;PMS_P1;PMS_P2;Temp;Humidity;BMP_temperature;BMP_pressure;BME280_temperature;BME280_humidity;BME280_pressure;Samples;Min_cycle;Max_cycle;Signal;HPM_P1;HPM_P2
2021/12/07 00:00:45;;;;;;;1.27;0.68;;;;;;;;;;4199899;28;20056;-43
2021/12/07 00:02:46;;;;;;;0.43;0.30;;;;;;;;;;4182053;28;20052;-42
2021/12/07 00:04:48;;;;;;;0.50;0.40;;;;;;;;;;4199922;28;20109;-42
2021/12/07 00:06:49;;;;;;;1.35;0.82;;;;;;;;;;4199807;28;20048;-43
2021/12/07 00:08:53;;;;;;;0.55;0.35;;;;;;;;;;4199563;28;20056;-42
2021/12/07 00:10:55;;;;;;;1.15;0.57;;;;;;;;;;4199709;28;20057;-42
2021/12/07 00:12:57;;;;;;;0.80;0.50;;;;;;;;;;4199746;28;20053;-43
2021/12/07 00:15:02;;;;;;;0.65;0.50;;;;;;;;;;4199837;28;20485;-42
2021/12/07 00:17:03;;;;;;;0.68;0.50;;;;;;;;;;4181921;28;20056;-42
2021/12/07 00:19:05;;;;;;;0.40;0.30;;;;;;;;;;4199547;28;20389;-42
2021/12/07 00:21:07;;;;;;;0.38;0.38;;;;;;;;;;4199943;28;20098;-41
2021/12/07 00:23:10;;;;;;;0.40;0.30;;;;;;;;;;4199094;28;20052;-42
2021/12/07 00:25:12;;;;;;;0.50;0.32;;;;;;;;;;4199798;28;20488;-42
2021/12/07 00:27:13;;;;;;;0.57;0.40;;;;;;;;;;4199629;28;20148;-42
2021/12/07 00:29:15;;;;;;;0.82;0.50;;;;;;;;;;4199571;28;20102;-42
2021/12/07 00:31:29;;;;;;;0.32;0.32;;;;;;;;;;4199385;28;20454;-43
2021/12/07 00:33:38;;;;;;;1.02;0.50;;;;;;;;;;4198130;28;20102;-41
2021/12/07 00:35:40;;;;;;;0.50;0.30;;;;;;;;;;4199640;28;20098;-41
2021/12/07 00:37:44;;;;;;;0.50;0.40;;;;;;;;;;4198624;28;20566;-43
2021/12/07 00:39:45;;;;;;;0.65;0.43;;;;;;;;;;4199390;28;20052;-42
2021/12/07 00:41:48;;;;;;;0.55;0.50;;;;;;;;;;4199632;28;20048;-42
2021/12/07 00:43:50;;;;;;;0.52;0.40;;;;;;;;;;4199213;28;20053;-42
2021/12/07 00:45:54;;;;;;;0.52;0.40;;;;;;;;;;4181588;28;20068;-43
2021/12/07 00:47:55;;;;;;;0.57;0.40;;;;;;;;;;4199076;28;20122;-43
2021/12/07 00:49:56;;;;;;;0.75;0.40;;;;;;;;;;4199279;28;20408;-41
2021/12/07 00:51:57;;;;;;;0.85;0.52;;;;;;;;;;4199092;28;20052;-42
2021/12/07 00:53:59;;;;;;;0.68;0.50;;;;;;;;;;4198864;28;20048;-42
2021/12/07 00:56:03;;;;;;;0.70;0.50;;;;;;;;;;4181369;28;20057;-42
2021/12/07 00:58:13;;;;;;;0.65;0.47;;;;;;;;;;4199284;28;20048;-42
2021/12/07 01:00:16;;;;;;;0.63;0.50;;;;;;;;;;4199081;28;20488;-42
2021/12/07 01:02:17;;;;;;;0.73;0.43;;;;;;;;;;4181284;28;20096;-42
2021/12/07 01:04:19;;;;;;;0.40;0.40;;;;;;;;;;4198976;28;20060;-43
2021/12/07 01:06:27;;;;;;;0.98;0.45;;;;;;;;;;4199312;28;20057;-42
2021/12/07 01:24:51;;;;;;;0.75;0.40;;;;;;;;;;4189509;28;20110;-42
2021/12/07 01:26:52;;;;;;;0.60;0.60;;;;;;;;;;4182141;28;20389;-43
2021/12/07 01:28:53;;;;;;;0.52;0.45;;;;;;;;;;4182058;28;20053;-41
2021/12/07 01:31:21;;;;;;;0.50;0.45;;;;;;;;;;4182170;28;20056;-42
2021/12/07 01:38:04;;;;;;;0.30;0.30;;;;;;;;;;4180241;28;20091;-41
2021/12/07 01:40:30;;;;;;;0.40;0.32;;;;;;;;;;4181875;28;20056;-42
2021/12/07 01:45:16;;;;;;;0.57;0.40;;;;;;;;;;4164222;28;20129;-42
2021/12/07 01:47:29;;;;;;;1.05;0.50;;;;;;;;;;4181620;28;20061;-43
2021/12/07 02:00:27;;;;;;;0.65;0.50;;;;;;;;;;4180537;28;20049;-41
2021/12/07 02:02:29;;;;;;;0.85;0.50;;;;;;;;;;4181392;28;20386;-42
2021/12/07 02:04:31;;;;;;;0.32;0.32;;;;;;;;;;4180433;28;20097;-42
2021/12/07 02:06:32;;;;;;;0.60;0.45;;;;;;;;;;4180210;28;20064;-42
2021/12/07 02:08:34;;;;;;;0.45;0.40;;;;;;;;;;4163129;28;20532;-42
2021/12/07 02:10:35;;;;;;;0.60;0.43;;;;;;;;;;4181474;28;20401;-42
2021/12/07 02:12:44;;;;;;;0.85;0.50;;;;;;;;;;4163728;28;20056;-42
2021/12/07 02:14:45;;;;;;;0.40;0.30;;;;;;;;;;4180269;28;20057;-43
2021/12/07 02:16:53;;;;;;;1.15;0.70;;;;;;;;;;4180181;28;20463;-42
2021/12/07 02:18:55;;;;;;;0.75;0.50;;;;;;;;;;4179807;28;20052;-41
2021/12/07 02:21:15;;;;;;;0.73;0.40;;;;;;;;;;4181211;28;20378;-42
2021/12/07 02:23:17;;;;;;;0.60;0.30;;;;;;;;;;4179146;28;20485;-42
2021/12/07 02:25:19;;;;;;;0.50;0.43;;;;;;;;;;4180402;28;20048;-42
2021/12/07 02:27:20;;;;;;;0.35;0.30;;;;;;;;;;4181395;28;20061;-43
2021/12/07 02:29:23;;;;;;;0.77;0.60;;;;;;;;;;4180156;28;20060;-42
2021/12/07 02:31:25;;;;;;;0.85;0.50;;;;;;;;;;4181016;28;20057;-43
2021/12/07 02:33:28;;;;;;;0.30;0.30;;;;;;;;;;4163398;28;20053;-42
2021/12/07 02:35:30;;;;;;;0.55;0.40;;;;;;;;;;4163635;28;20058;-43
2021/12/07 02:37:35;;;;;;;0.52;0.52;;;;;;;;;;4163190;28;20411;-42
2021/12/07 02:39:40;;;;;;;0.47;0.40;;;;;;;;;;4179415;28;20057;-41
2021/12/07 02:41:43;;;;;;;1.05;0.70;;;;;;;;;;4163186;28;20057;-42
2021/12/07 02:43:47;;;;;;;0.63;0.60;;;;;;;;;;4163208;28;20510;-42
2021/12/07 02:45:49;;;;;;;0.43;0.40;;;;;;;;;;4179818;28;20053;-42
2021/12/07 02:47:50;;;;;;;0.65;0.50;;;;;;;;;;4179549;28;20052;-43
2021/12/07 02:49:53;;;;;;;0.93;0.60;;;;;;;;;;4163456;28;20053;-43
2021/12/07 02:51:54;;;;;;;0.65;0.50;;;;;;;;;;4163105;28;20399;-42
2021/12/07 02:53:56;;;;;;;0.45;0.30;;;;;;;;;;4162751;28;20053;-42
2021/12/07 02:55:59;;;;;;;0.50;0.50;;;;;;;;;;4180798;28;20056;-43
2021/12/07 02:58:01;;;;;;;0.30;0.30;;;;;;;;;;4179266;28;20065;-42
2021/12/07 03:00:11;;;;;;;0.85;0.50;;;;;;;;;;4179549;28;20057;-42
2021/12/07 03:02:15;;;;;;;0.82;0.60;;;;;;;;;;4162851;28;20049;-43
2021/12/07 03:04:20;;;;;;;0.70;0.50;;;;;;;;;;4180863;28;20053;-42
2021/12/07 03:06:43;;;;;;;0.60;0.60;;;;;;;;;;4179675;28;20065;-42
2021/12/07 03:27:30;;;;;;;0.45;0.45;;;;;;;;;;4162966;28;20054;-43
2021/12/07 03:29:31;;;;;;;0.60;0.50;;;;;;;;;;4146514;28;20061;-43
2021/12/07 03:31:33;;;;;;;0.65;0.40;;;;;;;;;;4162700;28;20571;-42
2021/12/07 03:33:35;;;;;;;0.68;0.50;;;;;;;;;;4162989;28;20054;-43
2021/12/07 03:35:37;;;;;;;0.80;0.50;;;;;;;;;;4163167;28;20057;-43
2021/12/07 03:37:39;;;;;;;0.47;0.40;;;;;;;;;;4162347;28;20426;-43
2021/12/07 03:39:40;;;;;;;1.42;0.40;;;;;;;;;;4162678;28;20061;-42
2021/12/07 03:41:41;;;;;;;0.60;0.52;;;;;;;;;;4180719;28;20061;-44
2021/12/07 03:43:44;;;;;;;0.50;0.40;;;;;;;;;;4179142;28;20134;-42
2021/12/07 03:45:45;;;;;;;0.95;0.40;;;;;;;;;;4180345;28;20056;-42
2021/12/07 03:47:47;;;;;;;1.17;0.40;;;;;;;;;;4161866;28;20057;-42
2021/12/07 03:49:49;;;;;;;0.30;0.30;;;;;;;;;;4172623;28;20052;-42
2021/12/07 03:51:50;;;;;;;0.95;0.55;;;;;;;;;;4162749;28;20083;-42
2021/12/07 03:53:52;;;;;;;0.60;0.50;;;;;;;;;;4178608;28;20057;-41
2021/12/07 03:55:55;;;;;;;1.25;0.47;;;;;;;;;;4146284;28;20061;-42
2021/12/07 03:57:56;;;;;;;0.40;0.38;;;;;;;;;;4163696;28;20053;-42
2021/12/07 04:00:00;;;;;;;0.60;0.50;;;;;;;;;;4178962;28;20052;-42
2021/12/07 04:02:01;;;;;;;0.50;0.30;;;;;;;;;;4162832;28;20549;-42
2021/12/07 04:04:03;;;;;;;0.35;0.35;;;;;;;;;;4163721;28;20057;-42
2021/12/07 04:06:06;;;;;;;0.50;0.40;;;;;;;;;;4146578;28;20108;-42
2021/12/07 04:08:08;;;;;;;0.40;0.40;;;;;;;;;;4163357;28;20061;-42
2021/12/07 04:10:13;;;;;;;0.63;0.55;;;;;;;;;;4162831;28;20179;-42
2021/12/07 04:12:14;;;;;;;0.40;0.40;;;;;;;;;;4165296;28;20053;-42
2021/12/07 04:14:15;;;;;;;1.25;0.50;;;;;;;;;;4165471;28;20053;-43
2021/12/07 04:16:17;;;;;;;0.52;0.45;;;;;;;;;;4165877;28;20065;-42
2021/12/07 04:18:21;;;;;;;0.40;0.40;;;;;;;;;;4165642;28;20072;-42
2021/12/07 04:20:23;;;;;;;0.30;0.30;;;;;;;;;;4182144;28;20052;-43
2021/12/07 04:22:24;;;;;;;0.52;0.52;;;;;;;;;;4182024;28;20102;-42
2021/12/07 04:24:27;;;;;;;0.43;0.40;;;;;;;;;;4166141;28;20057;-42
2021/12/07 04:26:28;;;;;;;0.65;0.50;;;;;;;;;;4149029;28;20057;-42
2021/12/07 04:28:29;;;;;;;0.45;0.40;;;;;;;;;;4149068;28;20111;-41
2021/12/07 04:30:35;;;;;;;0.35;0.35;;;;;;;;;;4166576;28;20502;-43
2021/12/07 04:32:36;;;;;;;0.85;0.50;;;;;;;;;;4196357;28;20546;-43
2021/12/07 04:34:38;;;;;;;0.70;0.50;;;;;;;;;;4199777;28;20060;-43
2021/12/07 04:36:40;;;;;;;0.50;0.45;;;;;;;;;;4199541;28;20481;-43
2021/12/07 04:38:41;;;;;;;1.15;0.52;;;;;;;;;;4198887;28;20048;-42
2021/12/07 04:40:43;;;;;;;1.00;0.60;;;;;;;;;;4199394;28;20389;-41
2021/12/07 04:42:45;;;;;;;0.57;0.38;;;;;;;;;;4181388;28;20053;-42
2021/12/07 04:44:53;;;;;;;0.80;0.43;;;;;;;;;;4199580;28;20109;-42
2021/12/07 04:47:08;;;;;;;0.50;0.40;;;;;;;;;;4199240;28;20389;-43
2021/12/07 04:58:10;;;;;;;0.32;0.32;;;;;;;;;;4199227;28;20385;-43
2021/12/07 05:00:22;;;;;;;0.70;0.50;;;;;;;;;;4183122;28;20064;-43
2021/12/07 05:02:23;;;;;;;0.80;0.60;;;;;;;;;;4181094;28;20099;-43
2021/12/07 05:04:29;;;;;;;0.50;0.50;;;;;;;;;;4182375;28;20095;-43
2021/12/07 05:06:32;;;;;;;0.55;0.45;;;;;;;;;;4182531;28;20108;-43
2021/12/07 05:08:42;;;;;;;0.50;0.32;;;;;;;;;;4182106;28;20060;-43
2021/12/07 05:11:22;;;;;;;;;;;;;;;;;;4165410;28;20049;-42
2021/12/07 05:15:25;;;;;;;1.85;0.43;;;;;;;;;;4180843;28;20469;-41
2021/12/07 05:24:05;;;;;;;0.35;0.30;;;;;;;;;;4179648;28;20098;-43
2021/12/07 05:37:47;;;;;;;0.85;0.63;;;;;;;;;;4181917;28;20398;-42
2021/12/07 05:39:48;;;;;;;0.68;0.45;;;;;;;;;;4181827;28;20489;-42
2021/12/07 05:41:50;;;;;;;0.82;0.60;;;;;;;;;;4181828;28;20045;-42
2021/12/07 05:43:51;;;;;;;0.88;0.70;;;;;;;;;;4182114;28;20056;-42
2021/12/07 05:45:52;;;;;;;0.98;0.60;;;;;;;;;;4181805;28;20091;-43
2021/12/07 05:47:53;;;;;;;0.68;0.68;;;;;;;;;;4181576;28;20053;-42
2021/12/07 05:49:54;;;;;;;1.90;1.00;;;;;;;;;;4182007;28;20118;-42
2021/12/07 05:51:55;;;;;;;1.15;0.90;;;;;;;;;;4164034;28;20058;-42
2021/12/07 05:53:57;;;;;;;0.85;0.60;;;;;;;;;;4181073;28;20048;-43
2021/12/07 05:55:58;;;;;;;0.98;0.60;;;;;;;;;;4181602;28;20060;-42
2021/12/07 05:57:59;;;;;;;1.27;0.80;;;;;;;;;;4181058;28;20064;-41
2021/12/07 06:00:03;;;;;;;1.08;0.93;;;;;;;;;;4181644;28;20099;-42
2021/12/07 06:02:14;;;;;;;1.67;1.25;;;;;;;;;;4164181;28;20119;-42
2021/12/07 06:04:15;;;;;;;1.17;0.60;;;;;;;;;;4165006;28;20057;-43
2021/12/07 06:06:16;;;;;;;1.00;0.80;;;;;;;;;;4164557;28;20053;-42
2021/12/07 06:08:17;;;;;;;1.50;0.93;;;;;;;;;;4163354;28;20160;-42
2021/12/07 06:10:19;;;;;;;1.10;0.90;;;;;;;;;;4164753;28;20328;-42
2021/12/07 06:12:20;;;;;;;1.33;0.80;;;;;;;;;;4164731;28;20049;-42
2021/12/07 06:14:28;;;;;;;2.05;0.80;;;;;;;;;;4147529;28;20054;-42
2021/12/07 06:16:31;;;;;;;1.10;0.80;;;;;;;;;;4164893;28;20493;-41
2021/12/07 06:18:36;;;;;;;0.88;0.70;;;;;;;;;;4163668;28;20061;-42
2021/12/07 06:20:40;;;;;;;1.23;0.95;;;;;;;;;;4165017;28;20053;-42
2021/12/07 06:22:42;;;;;;;0.82;0.80;;;;;;;;;;4167799;28;20143;-43
2021/12/07 06:24:43;;;;;;;1.10;1.00;;;;;;;;;;4162960;28;20494;-43
2021/12/07 06:26:44;;;;;;;2.05;0.85;;;;;;;;;;4169170;28;20044;-42
2021/12/07 06:28:46;;;;;;;1.10;0.90;;;;;;;;;;4181287;28;20060;-42
2021/12/07 06:30:48;;;;;;;1.23;0.90;;;;;;;;;;4175789;28;20053;-43
2021/12/07 06:32:49;;;;;;;1.20;0.98;;;;;;;;;;4171897;28;20050;-42
2021/12/07 06:34:51;;;;;;;0.80;0.70;;;;;;;;;;4177372;28;20106;-41
2021/12/07 06:36:52;;;;;;;1.27;1.00;;;;;;;;;;4179438;28;20053;-42
2021/12/07 06:38:54;;;;;;;0.80;0.80;;;;;;;;;;4178239;28;20413;-41
2021/12/07 06:40:55;;;;;;;1.00;0.90;;;;;;;;;;4179120;28;20049;-42
2021/12/07 06:42:59;;;;;;;1.55;1.00;;;;;;;;;;4183271;28;20049;-42
2021/12/07 06:45:01;;;;;;;1.00;0.90;;;;;;;;;;4181151;28;20481;-42
2021/12/07 06:47:02;;;;;;;1.58;0.90;;;;;;;;;;4178350;28;20186;-42
2021/12/07 06:49:04;;;;;;;1.10;0.85;;;;;;;;;;4162547;28;20068;-42
2021/12/07 06:51:05;;;;;;;1.23;1.00;;;;;;;;;;4160665;28;20103;-43
2021/12/07 06:53:06;;;;;;;0.95;0.80;;;;;;;;;;4169723;28;20042;-43
2021/12/07 06:55:08;;;;;;;0.80;0.80;;;;;;;;;;4183813;28;20053;-42
2021/12/07 06:57:09;;;;;;;1.10;0.80;;;;;;;;;;4180971;28;20052;-42
2021/12/07 06:59:10;;;;;;;1.30;0.85;;;;;;;;;;4183402;28;20133;-42
2021/12/07 07:01:12;;;;;;;1.33;0.85;;;;;;;;;;4171500;28;20390;-42
2021/12/07 07:03:13;;;;;;;1.50;0.90;;;;;;;;;;4173057;28;20040;-43
2021/12/07 07:05:14;;;;;;;1.48;0.90;;;;;;;;;;4173121;28;20485;-43
2021/12/07 07:07:18;;;;;;;1.17;1.02;;;;;;;;;;4177667;28;20052;-43
2021/12/07 07:09:19;;;;;;;1.38;0.90;;;;;;;;;;4169149;28;20049;-43
2021/12/07 07:11:21;;;;;;;1.30;0.80;;;;;;;;;;4174510;28;20064;-42
2021/12/07 07:13:22;;;;;;;1.35;1.10;;;;;;;;;;4140475;28;20049;-43
2021/12/07 07:15:23;;;;;;;1.05;0.85;;;;;;;;;;4179387;28;20107;-43
2021/12/07 07:17:25;;;;;;;1.73;1.00;;;;;;;;;;4170558;28;20123;-43
2021/12/07 07:19:26;;;;;;;2.55;0.88;;;;;;;;;;4166566;28;20057;-43
2021/12/07 07:21:27;;;;;;;1.27;1.05;;;;;;;;;;4169141;28;20099;-43
2021/12/07 07:23:29;;;;;;;2.03;1.23;;;;;;;;;;4171474;28;20385;-42
2021/12/07 07:25:30;;;;;;;1.15;0.70;;;;;;;;;;4170902;28;20061;-43
2021/12/07 07:27:31;;;;;;;1.20;1.00;;;;;;;;;;4184650;28;20052;-43
2021/12/07 07:29:33;;;;;;;1.00;0.80;;;;;;;;;;4143926;28;20065;-43
2021/12/07 07:31:36;;;;;;;1.42;0.90;;;;;;;;;;4173340;28;20061;-43
2021/12/07 07:33:37;;;;;;;2.22;1.27;;;;;;;;;;4178733;28;20481;-42
2021/12/07 07:35:39;;;;;;;2.53;0.88;;;;;;;;;;4174688;28;20064;-43
2021/12/07 07:37:40;;;;;;;1.92;1.10;;;;;;;;;;4166768;28;20049;-43
2021/12/07 07:39:41;;;;;;;1.17;0.90;;;;;;;;;;4168426;28;20061;-42
2021/12/07 07:41:43;;;;;;;1.58;1.30;;;;;;;;;;4173792;28;20057;-45
2021/12/07 07:43:44;;;;;;;1.15;0.95;;;;;;;;;;4171732;28;20053;-43
2021/12/07 07:45:49;;;;;;;2.17;0.98;;;;;;;;;;4155676;28;20111;-43
2021/12/07 07:47:51;;;;;;;1.98;0.90;;;;;;;;;;4171998;28;20049;-42
2021/12/07 07:49:52;;;;;;;1.13;0.80;;;;;;;;;;4167347;28;20677;-44
2021/12/07 07:51:54;;;;;;;1.17;1.00;;;;;;;;;;4155119;28;20057;-42
2021/12/07 07:53:56;;;;;;;1.95;0.93;;;;;;;;;;4153668;28;20425;-43
2021/12/07 07:55:58;;;;;;;2.13;0.98;;;;;;;;;;4170065;28;20049;-43
2021/12/07 07:57:59;;;;;;;2.28;1.05;;;;;;;;;;4176767;28;20386;-42
2021/12/07 08:00:00;;;;;;;2.67;0.90;;;;;;;;;;4144290;28;20053;-42
2021/12/07 08:02:02;;;;;;;1.08;0.70;;;;;;;;;;4174433;28;20118;-42
2021/12/07 08:04:04;;;;;;;0.85;0.82;;;;;;;;;;4175450;28;20057;-42
2021/12/07 08:06:05;;;;;;;2.20;1.00;;;;;;;;;;4174206;28;20064;-43
2021/12/07 08:08:07;;;;;;;1.40;1.08;;;;;;;;;;4171218;28;20505;-43
2021/12/07 08:10:09;;;;;;;1.40;1.00;;;;;;;;;;4153578;28;20505;-43
2021/12/07 08:12:10;;;;;;;1.58;1.10;;;;;;;;;;4157753;28;20481;-43
2021/12/07 08:14:11;;;;;;;1.40;1.05;;;;;;;;;;4174476;28;20106;-43
2021/12/07 08:16:16;;;;;;;1.45;0.88;;;;;;;;;;4174875;28;20060;-42
2021/12/07 08:18:18;;;;;;;2.05;0.80;;;;;;;;;;4173605;28;20060;-43
2021/12/07 08:20:20;;;;;;;1.45;1.05;;;;;;;;;;4169312;28;20065;-43
2021/12/07 08:22:21;;;;;;;1.52;0.90;;;;;;;;;;4141290;28;20061;-42
2021/12/07 08:24:22;;;;;;;1.15;1.05;;;;;;;;;;4159436;28;20127;-43
2021/12/07 08:26:24;;;;;;;1.63;1.20;;;;;;;;;;4156678;28;20053;-43
2021/12/07 08:28:25;;;;;;;1.95;1.00;;;;;;;;;;4169602;28;20057;-43
2021/12/07 08:30:27;;;;;;;2.17;1.30;;;;;;;;;;4169888;28;20486;-41
2021/12/07 08:32:28;;;;;;;1.45;1.10;;;;;;;;;;4170896;28;20045;-42
2021/12/07 08:34:29;;;;;;;2.13;0.80;;;;;;;;;;4174444;28;20126;-43
2021/12/07 08:36:30;;;;;;;2.70;1.20;;;;;;;;;;4158126;28;20437;-42
2021/12/07 08:38:32;;;;;;;1.00;0.75;;;;;;;;;;4166169;28;20558;-42
2021/12/07 08:40:34;;;;;;;1.95;1.02;;;;;;;;;;4171598;28;20082;-42
2021/12/07 08:42:37;;;;;;;2.10;1.10;;;;;;;;;;4163953;28;20049;-42
2021/12/07 08:44:38;;;;;;;3.72;1.20;;;;;;;;;;4171948;28;20057;-44
2021/12/07 08:46:39;;;;;;;2.17;1.20;;;;;;;;;;4174521;28;20431;-43
2021/12/07 08:48:42;;;;;;;3.50;1.40;;;;;;;;;;4174904;28;20536;-41
2021/12/07 08:50:44;;;;;;;1.85;1.00;;;;;;;;;;4173545;28;20515;-44
2021/12/07 08:52:47;;;;;;;2.10;1.00;;;;;;;;;;4170650;28;20390;-41
2021/12/07 09:02:01;;;;;;;1.88;1.10;;;;;;;;;;4159422;28;20427;-43
2021/12/07 09:04:03;;;;;;;2.35;1.33;;;;;;;;;;4164084;28;20195;-41
2021/12/07 09:06:05;;;;;;;2.00;0.85;;;;;;;;;;4171164;28;20059;-43
2021/12/07 09:08:06;;;;;;;2.35;1.27;;;;;;;;;;4169534;28;20060;-43
2021/12/07 09:10:07;;;;;;;2.17;1.23;;;;;;;;;;4171748;28;20056;-43
2021/12/07 09:12:10;;;;;;;1.80;0.90;;;;;;;;;;4172181;28;20477;-42
2021/12/07 09:14:14;;;;;;;1.95;1.23;;;;;;;;;;4165009;28;20061;-43
2021/12/07 09:16:18;;;;;;;1.88;1.15;;;;;;;;;;4149233;28;20057;-42
2021/12/07 09:18:19;;;;;;;1.48;0.98;;;;;;;;;;4170843;28;20049;-43
2021/12/07 09:20:20;;;;;;;1.33;1.10;;;;;;;;;;4169988;28;20129;-43
2021/12/07 09:22:22;;;;;;;1.45;1.15;;;;;;;;;;4167229;28;20056;-43
2021/12/07 09:24:24;;;;;;;2.20;1.20;;;;;;;;;;4168158;28;20468;-43
2021/12/07 09:26:26;;;;;;;1.23;1.02;;;;;;;;;;4164744;28;20544;-43
2021/12/07 09:28:27;;;;;;;1.58;1.10;;;;;;;;;;4148036;28;20172;-43
2021/12/07 09:30:28;;;;;;;2.15;1.35;;;;;;;;;;4170645;28;20057;-42
2021/12/07 09:32:29;;;;;;;2.88;1.35;;;;;;;;;;4161711;28;20399;-43
2021/12/07 09:34:31;;;;;;;1.30;1.20;;;;;;;;;;4155101;28;20104;-42
2021/12/07 09:36:33;;;;;;;2.28;1.30;;;;;;;;;;4165269;28;20126;-43
2021/12/07 09:38:35;;;;;;;2.35;1.38;;;;;;;;;;4166175;28;20061;-43
2021/12/07 09:40:36;;;;;;;2.90;1.30;;;;;;;;;;4168620;28;20059;-43
2021/12/07 09:42:38;;;;;;;1.17;0.95;;;;;;;;;;4165881;28;20083;-42
2021/12/07 09:44:39;;;;;;;2.45;1.20;;;;;;;;;;4168556;28;20056;-42
2021/12/07 09:46:42;;;;;;;2.13;1.38;;;;;;;;;;4169361;28;20378;-44
2021/12/07 09:48:45;;;;;;;3.28;1.55;;;;;;;;;;4171091;28;20065;-42
2021/12/07 09:50:49;;;;;;;2.05;1.15;;;;;;;;;;4167272;28;20057;-43
2021/12/07 09:52:51;;;;;;;1.48;0.98;;;;;;;;;;4165474;28;20502;-43
2021/12/07 09:54:54;;;;;;;2.03;1.00;;;;;;;;;;4167833;28;20409;-43
2021/12/07 09:56:55;;;;;;;1.17;0.93;;;;;;;;;;4165961;28;20373;-44
2021/12/07 09:58:59;;;;;;;1.77;1.08;;;;;;;;;;4168898;28;20122;-43
2021/12/07 10:01:00;;;;;;;1.90;1.40;;;;;;;;;;4160860;28;20065;-41
2021/12/07 10:03:02;;;;;;;2.40;1.20;;;;;;;;;;4162334;28;20056;-41
2021/12/07 10:05:04;;;;;;;1.35;1.25;;;;;;;;;;4167298;28;20077;-42
2021/12/07 10:07:08;;;;;;;2.97;1.40;;;;;;;;;;4169238;28;20045;-43
2021/12/07 10:09:09;;;;;;;1.98;1.33;;;;;;;;;;4169601;28;20057;-42
2021/12/07 10:11:11;;;;;;;2.80;1.35;;;;;;;;;;4153028;28;20054;-43
2021/12/07 10:13:13;;;;;;;2.75;1.63;;;;;;;;;;4168966;28;20045;-43
2021/12/07 10:15:15;;;;;;;1.95;1.48;;;;;;;;;;4171335;28;20053;-42
2021/12/07 10:17:21;;;;;;;1.95;1.33;;;;;;;;;;4170088;28;20052;-43
2021/12/07 10:19:30;;;;;;;1.80;1.10;;;;;;;;;;4149645;28;20414;-43
2021/12/07 10:21:38;;;;;;;4.07;1.30;;;;;;;;;;4172556;28;20057;-42
2021/12/07 10:23:41;;;;;;;1.50;1.40;;;;;;;;;;4177079;28;20493;-41
2021/12/07 10:25:55;;;;;;;2.03;1.20;;;;;;;;;;4170973;28;20444;-44
2021/12/07 10:27:57;;;;;;;2.28;1.45;;;;;;;;;;4152715;28;20076;-43
2021/12/07 10:29:59;;;;;;;2.00;1.33;;;;;;;;;;4163690;28;20112;-43
2021/12/07 10:32:07;;;;;;;2.03;1.60;;;;;;;;;;4161053;28;20119;-42
2021/12/07 10:34:17;;;;;;;1.92;1.35;;;;;;;;;;4145475;28;20068;-42
2021/12/07 10:36:43;;;;;;;2.30;1.33;;;;;;;;;;4165221;28;20071;-41
2021/12/07 10:38:50;;;;;;;1.88;1.40;;;;;;;;;;4154880;28;20053;-41
2021/12/07 10:41:00;;;;;;;2.05;1.48;;;;;;;;;;4161617;28;20119;-42
2021/12/07 10:43:02;;;;;;;1.95;1.65;;;;;;;;;;4169363;28;20839;-39
2021/12/07 10:45:06;;;;;;;1.98;1.50;;;;;;;;;;4154240;28;20057;-42
2021/12/07 10:47:09;;;;;;;1.35;1.15;;;;;;;;;;4163737;28;20096;-42
2021/12/07 10:49:26;;;;;;;1.30;1.15;;;;;;;;;;4162782;28;20160;-43
2021/12/07 10:51:27;;;;;;;2.10;1.42;;;;;;;;;;4147208;28;20041;-42
2021/12/07 10:53:34;;;;;;;3.53;1.40;;;;;;;;;;4167958;28;20354;-40
2021/12/07 10:55:40;;;;;;;2.75;1.60;;;;;;;;;;4168576;28;20550;-42
2021/12/07 10:57:54;;;;;;;1.88;1.15;;;;;;;;;;4168730;28;20084;-43
2021/12/07 11:00:07;;;;;;;2.28;1.45;;;;;;;;;;4168847;28;20061;-42
2021/12/07 11:02:14;;;;;;;1.88;1.20;;;;;;;;;;4163893;28;20053;-40
2021/12/07 11:04:26;;;;;;;2.30;1.10;;;;;;;;;;4156257;28;20053;-43
2021/12/07 11:06:27;;;;;;;2.33;1.10;;;;;;;;;;4167135;28;20339;-42
2021/12/07 11:08:33;;;;;;;2.85;1.10;;;;;;;;;;4162645;28;20056;-41
2021/12/07 11:10:38;;;;;;;2.80;1.42;;;;;;;;;;4152068;28;20338;-39
2021/12/07 11:13:01;;;;;;;2.25;1.35;;;;;;;;;;4168889;28;20098;-43
2021/12/07 11:15:11;;;;;;;3.58;1.17;;;;;;;;;;4166106;28;20508;-41
2021/12/07 11:17:12;;;;;;;1.52;1.00;;;;;;;;;;4145848;28;20053;-42
2021/12/07 11:19:21;;;;;;;1.42;1.00;;;;;;;;;;4165449;28;20342;-42
2021/12/07 11:21:23;;;;;;;2.78;1.15;;;;;;;;;;4169791;28;20116;-37
2021/12/07 11:23:28;;;;;;;1.65;1.30;;;;;;;;;;4182378;28;20610;-42
2021/12/07 11:30:21;;;;;;;2.10;1.13;;;;;;;;;;4174755;28;20106;-38
2021/12/07 11:32:22;;;;;;;2.50;1.05;;;;;;;;;;4173172;28;20085;-40
2021/12/07 11:34:27;;;;;;;2.05;0.93;;;;;;;;;;4159516;28;20579;-37
2021/12/07 11:36:32;;;;;;;2.10;1.10;;;;;;;;;;4171867;28;20074;-43
2021/12/07 11:38:33;;;;;;;1.70;1.27;;;;;;;;;;4184867;28;20420;-42
2021/12/07 11:40:38;;;;;;;1.42;1.15;;;;;;;;;;4182108;28;20103;-42
2021/12/07 11:42:42;;;;;;;1.80;1.20;;;;;;;;;;4185151;28;20468;-43
2021/12/07 11:45:02;;;;;;;1.35;0.98;;;;;;;;;;4179036;28;20570;-39
2021/12/07 11:47:04;;;;;;;1.33;1.00;;;;;;;;;;4169642;28;20057;-43
2021/12/07 11:49:11;;;;;;;2.97;1.10;;;;;;;;;;4165483;28;20077;-41
2021/12/07 11:51:12;;;;;;;2.33;1.35;;;;;;;;;;4165334;28;20126;-43
2021/12/07 11:53:17;;;;;;;1.52;1.30;;;;;;;;;;4147957;28;20150;-40
2021/12/07 11:55:19;;;;;;;2.00;1.23;;;;;;;;;;4164283;28;20393;-43
2021/12/07 11:57:20;;;;;;;1.55;1.13;;;;;;;;;;4156913;28;20137;-41
2021/12/07 11:59:22;;;;;;;3.20;1.20;;;;;;;;;;4155272;28;20067;-43
2021/12/07 12:01:24;;;;;;;2.20;1.02;;;;;;;;;;4160135;28;20068;-43
2021/12/07 12:03:26;;;;;;;1.77;1.10;;;;;;;;;;4163573;28;20639;-44
2021/12/07 12:05:27;;;;;;;1.23;1.13;;;;;;;;;;4165675;28;20401;-42
2021/12/07 12:07:29;;;;;;;3.95;1.48;;;;;;;;;;4145473;28;20069;-43
2021/12/07 12:09:30;;;;;;;2.15;1.13;;;;;;;;;;4150941;28;20057;-44
2021/12/07 12:11:36;;;;;;;2.65;1.65;;;;;;;;;;4172453;28;20060;-44
2021/12/07 12:13:57;;;;;;;1.48;1.05;;;;;;;;;;4166215;28;20109;-39
2021/12/07 12:16:16;;;;;;;1.40;1.00;;;;;;;;;;4156272;28;20159;-41
2021/12/07 12:18:43;;;;;;;2.63;1.00;;;;;;;;;;4168870;28;20103;-43
2021/12/07 12:21:02;;;;;;;1.75;1.23;;;;;;;;;;4147576;28;20060;-42
2021/12/07 12:23:24;;;;;;;1.27;1.03;;;;;;;;;;4152348;28;20095;-43
2021/12/07 12:25:27;;;;;;;1.83;0.93;;;;;;;;;;4135823;28;20845;-42
2021/12/07 12:27:33;;;;;;;1.75;1.10;;;;;;;;;;4148164;28;20057;-42
2021/12/07 12:29:36;;;;;;;1.60;0.95;;;;;;;;;;4150989;28;20058;-41
2021/12/07 12:31:58;;;;;;;1.63;0.90;;;;;;;;;;4139199;28;20061;-43
2021/12/07 12:33:59;;;;;;;1.67;1.20;;;;;;;;;;4133725;28;20065;-41
2021/12/07 12:36:02;;;;;;;1.13;0.77;;;;;;;;;;4121994;28;20057;-42
2021/12/07 12:38:03;;;;;;;1.10;1.00;;;;;;;;;;4145358;28;20061;-42
2021/12/07 12:40:10;;;;;;;2.33;1.15;;;;;;;;;;4147056;28;20493;-41
2021/12/07 12:42:35;;;;;;;1.02;0.82;;;;;;;;;;4153379;28;20061;-42
2021/12/07 12:44:37;;;;;;;1.40;1.00;;;;;;;;;;4144594;28;20064;-40
2021/12/07 12:46:40;;;;;;;2.08;0.90;;;;;;;;;;4145541;28;20053;-41
2021/12/07 12:48:45;;;;;;;1.00;0.88;;;;;;;;;;4148048;28;20057;-42
2021/12/07 12:50:52;;;;;;;1.77;1.10;;;;;;;;;;4150148;28;20091;-37
2021/12/07 12:53:20;;;;;;;1.00;0.90;;;;;;;;;;4145493;28;20053;-42
2021/12/07 12:55:31;;;;;;;1.60;1.00;;;;;;;;;;4134151;28;20300;-42
2021/12/07 12:57:32;;;;;;;1.10;1.00;;;;;;;;;;4146773;28;20546;-43
2021/12/07 12:59:37;;;;;;;1.25;1.00;;;;;;;;;;4130447;28;20149;-41
2021/12/07 13:01:43;;;;;;;1.10;1.00;;;;;;;;;;4139974;28;20135;-42
2021/12/07 13:04:09;;;;;;;3.95;1.08;;;;;;;;;;4142993;28;20496;-43
2021/12/07 13:06:17;;;;;;;1.67;1.00;;;;;;;;;;4137880;28;20088;-40
2021/12/07 13:08:19;;;;;;;1.92;0.95;;;;;;;;;;4152273;28;20103;-42
2021/12/07 13:10:20;;;;;;;2.47;0.98;;;;;;;;;;4149889;28;20107;-37
2021/12/07 13:12:25;;;;;;;1.15;0.95;;;;;;;;;;4148836;28;20536;-39
2021/12/07 13:14:26;;;;;;;2.65;1.08;;;;;;;;;;4153042;28;20119;-38
2021/12/07 13:16:28;;;;;;;2.97;1.10;;;;;;;;;;4140927;28;20592;-41
2021/12/07 13:18:32;;;;;;;1.48;0.82;;;;;;;;;;4120327;28;20062;-40
2021/12/07 13:20:36;;;;;;;1.10;0.90;;;;;;;;;;4150164;28;20061;-40
2021/12/07 13:22:47;;;;;;;1.52;1.00;;;;;;;;;;4151475;28;20079;-43
2021/12/07 13:24:56;;;;;;;1.17;0.80;;;;;;;;;;4152917;28;20053;-43
2021/12/07 13:26:57;;;;;;;1.17;0.85;;;;;;;;;;4166578;28;20109;-42
2021/12/07 13:29:07;;;;;;;1.30;1.00;;;;;;;;;;4162337;28;20119;-42
2021/12/07 13:31:09;;;;;;;2.58;1.20;;;;;;;;;;4149707;28;20634;-39
2021/12/07 13:33:19;;;;;;;1.30;0.95;;;;;;;;;;4153704;28;20095;-40
2021/12/07 13:35:29;;;;;;;1.45;0.88;;;;;;;;;;4166609;28;20056;-39
2021/12/07 13:37:46;;;;;;;1.85;1.13;;;;;;;;;;4168379;28;20052;-43
2021/12/07 13:39:49;;;;;;;1.70;1.00;;;;;;;;;;4161929;28;20192;-41
2021/12/07 13:42:03;;;;;;;2.83;1.10;;;;;;;;;;4157861;28;20106;-42
2021/12/07 13:44:09;;;;;;;1.67;0.80;;;;;;;;;;4163249;28;20056;-42
2021/12/07 13:46:11;;;;;;;1.20;0.70;;;;;;;;;;4165078;28;20588;-41
2021/12/07 13:48:18;;;;;;;1.30;1.00;;;;;;;;;;4148869;28;20105;-42
2021/12/07 13:50:24;;;;;;;1.50;0.75;;;;;;;;;;4167996;28;20068;-40
2021/12/07 13:52:39;;;;;;;1.10;0.90;;;;;;;;;;4167040;28;20098;-41
2021/12/07 13:54:43;;;;;;;3.25;1.23;;;;;;;;;;4172819;28;20079;-42
2021/12/07 13:56:44;;;;;;;1.77;0.90;;;;;;;;;;4172291;28;20060;-40
2021/12/07 13:58:59;;;;;;;3.17;1.10;;;;;;;;;;4173340;28;20060;-41